createdAt,value
2023-05-01T00:00:33.559Z,7.06
2023-05-01T00:01:55.357Z,6.62
2023-05-01T00:03:18.194Z,7.53
2023-05-01T00:04:40.056Z,7.74
2023-05-01T00:06:01.936Z,7.35
2023-05-01T00:07:23.313Z,7.39
2023-05-01T00:08:45.176Z,6.91
2023-05-01T00:10:07.197Z,7.57
2023-05-01T00:11:28.713Z,7.52
2023-05-01T00:12:53.168Z,7.11
2023-05-01T00:14:14.952Z,7.25
2023-05-01T00:15:36.585Z,7.17
2023-05-01T00:16:58.798Z,7.41
2023-05-01T00:18:20.496Z,7.92
2023-05-01T00:19:42.223Z,7.53
2023-05-01T00:21:04.167Z,7.81
2023-05-01T00:22:39.943Z,7.32
2023-05-01T00:24:13.448Z,7.94
2023-05-01T00:25:34.984Z,8.39
2023-05-01T00:26:56.651Z,9.04
2023-05-01T00:28:25.450Z,8.41
2023-05-01T00:29:47.409Z,8.50
2023-05-01T00:31:11.462Z,9.02
2023-05-01T00:32:47.667Z,9.07
2023-05-01T00:34:11.683Z,8.75
2023-05-01T00:35:35.668Z,8.85
2023-05-01T00:36:59.633Z,8.87
2023-05-01T00:38:21.443Z,9.33
2023-05-01T00:39:45.632Z,8.88
2023-05-01T00:41:09.345Z,9.39
2023-05-01T00:42:33.594Z,9.35
2023-05-01T00:43:55.582Z,9.10
2023-05-01T00:45:19.294Z,9.90
2023-05-01T00:46:42.655Z,9.95
2023-05-01T00:48:05.353Z,10.13
2023-05-01T00:49:27.083Z,9.41
2023-05-01T00:50:48.918Z,9.51
2023-05-01T00:52:10.709Z,9.94
2023-05-01T00:53:32.439Z,10.00
2023-05-01T00:54:54.041Z,9.17
2023-05-01T00:56:18.205Z,10.05
2023-05-01T00:57:51.844Z,9.70
2023-05-01T00:59:13.685Z,9.96
2023-05-01T01:00:35.438Z,10.84
2023-05-01T01:01:59.524Z,10.63
2023-05-01T01:03:21.400Z,10.53
2023-05-01T01:04:43.894Z,10.69
2023-05-01T01:06:05.704Z,10.50
2023-05-01T01:07:27.177Z,10.04
2023-05-01T01:08:49.118Z,10.93
2023-05-01T01:10:11.068Z,10.53
2023-05-01T01:11:32.619Z,10.43
2023-05-01T01:12:54.261Z,10.35
2023-05-01T01:14:17.048Z,10.43
2023-05-01T01:15:38.900Z,10.19
2023-05-01T01:17:01.096Z,11.65
2023-05-01T01:18:22.256Z,10.56
2023-05-01T01:19:44.341Z,10.72
2023-05-01T01:21:06.883Z,11.04
2023-05-01T01:22:28.816Z,11.14
2023-05-01T01:23:50.682Z,10.93
2023-05-01T01:25:12.678Z,10.87
2023-05-01T01:26:34.496Z,11.83
2023-05-01T01:27:56.765Z,10.88
2023-05-01T01:29:18.514Z,11.85
2023-05-01T01:30:40.762Z,11.24
2023-05-01T01:32:02.690Z,10.62
2023-05-01T01:33:24.318Z,10.92
2023-05-01T01:34:48.673Z,10.86
2023-05-01T01:36:10.688Z,11.57
2023-05-01T01:37:39.594Z,11.61
2023-05-01T01:39:01.444Z,11.43
2023-05-01T01:40:23.176Z,13.08
2023-05-01T01:41:45.336Z,12.28
2023-05-01T01:43:07.035Z,11.75
2023-05-01T01:44:32.575Z,11.36
2023-05-01T01:45:54.187Z,12.10
2023-05-01T01:47:15.885Z,11.59
2023-05-01T01:48:37.787Z,11.96
2023-05-01T01:49:59.718Z,11.90
2023-05-01T01:51:21.961Z,12.15
2023-05-01T01:52:43.963Z,11.48
2023-05-01T01:54:06.094Z,11.64
2023-05-01T01:55:32.929Z,12.44
2023-05-01T01:56:54.640Z,12.19
2023-05-01T01:58:16.895Z,12.57
2023-05-01T01:59:39.741Z,12.23
2023-05-01T02:01:01.706Z,11.93
2023-05-01T02:02:23.434Z,12.15
2023-05-01T02:03:45.735Z,13.22
2023-05-01T02:05:07.599Z,12.12
2023-05-01T02:06:34.303Z,12.58
2023-05-01T02:07:56.180Z,12.01
2023-05-01T02:09:17.958Z,11.89
2023-05-01T02:10:39.649Z,12.34
2023-05-01T02:12:01.700Z,12.42
2023-05-01T02:13:24.660Z,11.36
2023-05-01T02:14:51.310Z,12.37
2023-05-01T02:16:13.370Z,12.16
2023-05-01T02:17:35.167Z,12.02
2023-05-01T02:18:57.108Z,11.81
2023-05-01T02:20:21.288Z,12.20
2023-05-01T02:21:45.933Z,12.19
2023-05-01T02:23:07.909Z,12.16
2023-05-01T02:24:29.365Z,12.14
2023-05-01T02:25:53.563Z,11.79
2023-05-01T02:27:15.596Z,12.91
2023-05-01T02:28:37.397Z,12.91
2023-05-01T02:31:20.915Z,12.77
2023-05-01T02:32:44.197Z,12.95
2023-05-01T02:34:06.146Z,12.12
2023-05-01T02:35:30.189Z,12.49
2023-05-01T02:36:52.101Z,12.67
2023-05-01T02:38:15.048Z,13.14
2023-05-01T02:39:36.920Z,13.59
2023-05-01T02:40:59.047Z,13.00
2023-05-01T02:42:20.359Z,13.23
2023-05-01T02:43:42.292Z,13.38
2023-05-01T02:45:06.492Z,14.60
2023-05-01T02:46:28.193Z,13.94
2023-05-01T02:47:50.499Z,15.00
2023-05-01T02:49:12.207Z,13.93
2023-05-01T02:50:33.966Z,13.95
2023-05-01T02:51:55.924Z,14.33
2023-05-01T02:53:18.001Z,13.89
2023-05-01T02:54:44.811Z,13.78
2023-05-01T02:56:07.913Z,13.45
2023-05-01T02:57:29.478Z,12.38
2023-05-01T02:58:54.566Z,13.54
2023-05-01T03:00:16.752Z,13.26
2023-05-01T03:01:39.791Z,13.76
2023-05-01T03:03:01.627Z,14.13
2023-05-01T03:04:23.355Z,13.60
2023-05-01T03:05:45.657Z,13.98
2023-05-01T03:07:08.233Z,14.72
2023-05-01T03:08:33.042Z,14.19
2023-05-01T03:09:55.502Z,14.14
2023-05-01T03:11:17.844Z,15.83
2023-05-01T03:12:41.743Z,15.07
2023-05-01T03:14:03.757Z,14.30
2023-05-01T03:15:25.528Z,14.36
2023-05-01T03:16:51.813Z,14.00
2023-05-01T03:18:13.706Z,14.19
2023-05-01T03:19:42.660Z,14.15
2023-05-01T03:21:04.762Z,13.40
2023-05-01T03:22:26.529Z,14.92
2023-05-01T03:23:51.174Z,15.35
2023-05-01T03:25:15.849Z,14.47
2023-05-01T03:26:37.813Z,14.59
2023-05-01T03:27:59.833Z,14.37
2023-05-01T03:29:21.446Z,15.07
2023-05-01T03:30:43.330Z,14.11
2023-05-01T03:32:05.522Z,15.28
2023-05-01T03:33:31.756Z,14.72
2023-05-01T03:34:56.006Z,14.10
2023-05-01T03:36:24.848Z,13.78
2023-05-01T03:37:47.337Z,12.79
2023-05-01T03:39:14.862Z,12.57
2023-05-01T03:40:57.904Z,13.23
2023-05-01T03:42:38.278Z,13.72
2023-05-01T03:44:07.119Z,13.10
2023-05-01T03:45:44.726Z,12.77
2023-05-01T03:47:07.170Z,12.82
2023-05-01T03:48:32.667Z,14.01
2023-05-01T03:49:58.879Z,13.87
2023-05-01T03:51:20.900Z,13.63
2023-05-01T03:52:43.272Z,13.02
2023-05-01T03:54:05.328Z,13.73
2023-05-01T03:55:34.834Z,13.18
2023-05-01T03:56:58.723Z,13.76
2023-05-01T03:58:23.123Z,13.35
2023-05-01T03:59:45.351Z,13.47
2023-05-01T04:01:07.304Z,13.26
2023-05-01T04:02:29.766Z,13.59
2023-05-01T04:03:52.194Z,13.75
2023-05-01T04:05:14.559Z,13.64
2023-05-01T04:06:39.193Z,13.43
2023-05-01T04:08:01.240Z,13.80
2023-05-01T04:09:22.727Z,13.37
2023-05-01T04:10:44.886Z,14.16
2023-05-01T04:12:06.819Z,15.33
2023-05-01T04:13:28.567Z,15.47
2023-05-01T04:14:58.788Z,15.03
2023-05-01T04:16:20.584Z,16.10
2023-05-01T04:17:50.008Z,16.17
2023-05-01T04:19:14.385Z,17.62
2023-05-01T04:20:37.648Z,17.83
2023-05-01T04:22:01.864Z,16.96
2023-05-01T04:23:24.898Z,16.51
2023-05-01T04:24:47.355Z,16.78
2023-05-01T04:26:09.274Z,14.96
2023-05-01T04:27:30.827Z,14.79
2023-05-01T04:28:52.975Z,14.51
2023-05-01T04:30:17.143Z,14.57
2023-05-01T04:31:46.930Z,13.89
2023-05-01T04:33:11.757Z,12.84
2023-05-01T04:34:33.837Z,12.94
2023-05-01T04:35:58.800Z,12.58
2023-05-01T04:37:23.014Z,12.08
2023-05-01T04:38:45.139Z,12.46
2023-05-01T04:40:09.180Z,12.85
2023-05-01T04:41:34.978Z,12.75
2023-05-01T04:42:59.248Z,12.25
2023-05-01T04:44:20.735Z,12.26
2023-05-01T04:45:42.945Z,12.40
2023-05-01T04:47:06.245Z,11.78
2023-05-01T04:48:28.044Z,11.35
2023-05-01T04:49:49.542Z,11.98
2023-05-01T04:51:15.802Z,12.80
2023-05-01T04:52:37.662Z,11.51
2023-05-01T04:53:59.393Z,12.21
2023-05-01T04:55:23.716Z,11.77
2023-05-01T04:57:19.296Z,11.83
2023-05-01T04:58:44.380Z,11.84
2023-05-01T05:00:08.697Z,12.27
2023-05-01T05:01:49.971Z,11.26
2023-05-01T05:03:11.879Z,11.38
2023-05-01T05:04:33.854Z,11.27
2023-05-01T05:06:03.344Z,12.30
2023-05-01T05:07:24.838Z,11.60
2023-05-01T05:09:09.272Z,11.75
2023-05-01T05:10:31.029Z,11.70
2023-05-01T05:12:14.769Z,11.13
2023-05-01T05:13:36.637Z,12.14
2023-05-01T05:15:06.522Z,11.63
2023-05-01T05:16:35.731Z,12.16
2023-05-01T05:17:57.500Z,12.00
2023-05-01T05:19:38.196Z,12.16
2023-05-01T05:20:59.749Z,11.81
2023-05-01T05:22:25.949Z,11.33
2023-05-01T05:24:21.181Z,12.03
2023-05-01T05:25:43.265Z,12.52
2023-05-01T05:27:07.212Z,12.16
2023-05-01T05:28:28.996Z,11.85
2023-05-01T05:30:01.144Z,12.71
2023-05-01T05:31:30.649Z,12.03
2023-05-01T05:32:52.750Z,12.90
2023-05-01T05:34:15.268Z,12.30
2023-05-01T05:35:39.270Z,12.64
2023-05-01T05:37:03.277Z,11.46
2023-05-01T05:38:27.954Z,12.27
2023-05-01T05:39:51.769Z,12.17
2023-05-01T05:41:15.819Z,12.05
2023-05-01T05:42:37.725Z,12.12
2023-05-01T05:44:03.288Z,12.18
2023-05-01T05:45:25.971Z,12.70
2023-05-01T05:46:47.888Z,12.67
2023-05-01T05:48:19.940Z,12.29
2023-05-01T05:49:47.094Z,12.38
2023-05-01T05:51:11.400Z,12.31
2023-05-01T05:52:45.223Z,12.29
2023-05-01T05:54:07.710Z,11.95
2023-05-01T05:55:45.879Z,12.01
2023-05-01T05:57:07.560Z,12.05
2023-05-01T05:58:42.288Z,12.72
2023-05-01T06:00:10.067Z,13.55
2023-05-01T06:01:49.734Z,12.67
2023-05-01T06:03:19.471Z,12.94
2023-05-01T06:04:41.995Z,12.86
2023-05-01T06:06:03.971Z,12.80
2023-05-01T06:07:26.166Z,13.21
2023-05-01T06:08:48.241Z,13.05
2023-05-01T06:10:10.345Z,13.26
2023-05-01T06:11:31.839Z,11.83
2023-05-01T06:13:02.603Z,12.32
2023-05-01T06:14:45.930Z,12.53
2023-05-01T06:16:07.885Z,11.44
2023-05-01T06:17:29.127Z,12.02
2023-05-01T06:18:53.141Z,11.49
2023-05-01T06:20:24.294Z,10.94
2023-05-01T06:21:49.647Z,10.46
2023-05-01T06:23:13.574Z,10.20
2023-05-01T06:24:40.173Z,10.42
2023-05-01T06:26:03.324Z,9.80
2023-05-01T06:27:27.181Z,10.75
2023-05-01T06:29:03.513Z,9.96
2023-05-01T06:30:27.964Z,9.84
2023-05-01T06:31:55.597Z,9.90
2023-05-01T06:33:22.521Z,9.26
2023-05-01T06:34:54.021Z,10.08
2023-05-01T06:36:29.285Z,9.23
2023-05-01T06:37:55.922Z,9.87
2023-05-01T06:39:22.311Z,9.92
2023-05-01T06:40:58.805Z,9.88
2023-05-01T06:42:22.947Z,10.12
2023-05-01T06:43:45.069Z,9.23
2023-05-01T06:45:08.479Z,9.77
2023-05-01T06:46:41.794Z,9.35
2023-05-01T06:48:04.130Z,8.78
2023-05-01T06:49:27.697Z,9.12
2023-05-01T06:50:51.634Z,9.43
2023-05-01T06:52:13.867Z,9.18
2023-05-01T06:53:36.888Z,8.95
2023-05-01T06:55:19.609Z,9.20
2023-05-01T06:56:41.509Z,9.10
2023-05-01T06:58:12.640Z,8.85
2023-05-01T06:59:44.706Z,8.40
2023-05-01T07:01:06.498Z,8.90
2023-05-01T07:02:27.988Z,8.98
2023-05-01T07:03:50.083Z,8.24
2023-05-01T07:05:11.694Z,7.88
2023-05-01T07:06:41.003Z,7.10
2023-05-01T07:08:05.304Z,7.62
2023-05-01T07:09:28.902Z,6.95
2023-05-01T07:11:02.820Z,7.35
2023-05-01T07:12:24.416Z,6.85
2023-05-01T07:13:46.203Z,6.98
2023-05-01T07:15:10.038Z,7.14
2023-05-01T07:16:32.439Z,7.33
2023-05-01T07:18:05.992Z,8.02
2023-05-01T07:19:39.503Z,7.60
2023-05-01T07:21:12.941Z,7.18
2023-05-01T07:22:48.541Z,7.21
2023-05-01T07:24:10.344Z,7.51
2023-05-01T07:25:46.188Z,7.47
2023-05-01T07:27:36.486Z,7.53
2023-05-01T07:29:17.598Z,6.57
2023-05-01T07:31:03.551Z,7.93
2023-05-01T07:32:48.424Z,7.36
2023-05-01T07:34:21.901Z,6.57
2023-05-01T07:35:43.621Z,7.05
2023-05-01T07:37:28.832Z,7.39
2023-05-01T07:39:03.422Z,7.15
2023-05-01T07:40:52.225Z,6.95
2023-05-01T07:42:26.193Z,7.19
2023-05-01T07:43:59.885Z,6.21
2023-05-01T07:45:44.879Z,4.66
2023-05-01T07:47:08.975Z,4.48
2023-05-01T07:48:43.664Z,4.09
2023-05-01T07:50:28.815Z,4.57
2023-05-01T07:52:04.412Z,5.53
2023-05-01T07:53:35.138Z,5.66
2023-05-01T07:55:15.930Z,4.93
2023-05-01T07:56:37.855Z,4.65
2023-05-01T07:58:06.985Z,4.28
2023-05-01T07:59:28.768Z,3.97
2023-05-01T08:00:53.158Z,3.90
2023-05-01T08:02:14.983Z,4.08
2023-05-01T08:03:37.175Z,4.35
2023-05-01T08:05:14.513Z,3.86
2023-05-01T08:06:36.219Z,4.34
2023-05-01T08:07:58.338Z,4.18
2023-05-01T08:09:27.177Z,3.90
2023-05-01T08:10:49.323Z,4.16
2023-05-01T08:12:11.231Z,4.27
2023-05-01T08:13:35.250Z,4.58
2023-05-01T08:14:57.164Z,3.80
2023-05-01T08:16:21.907Z,4.52
2023-05-01T08:17:51.410Z,4.79
2023-05-01T08:19:13.042Z,4.27
2023-05-01T08:20:34.636Z,5.17
2023-05-01T08:23:55.032Z,6.08
2023-05-01T08:25:24.621Z,4.82
2023-05-01T08:26:46.772Z,5.34
2023-05-01T08:28:10.614Z,5.01
2023-05-01T08:29:34.710Z,4.40
2023-05-01T08:30:58.936Z,4.67
2023-05-01T08:32:25.210Z,4.75
2023-05-01T08:33:47.264Z,5.50
2023-05-01T08:35:09.759Z,5.03
2023-05-01T08:36:32.701Z,5.10
2023-05-01T08:37:54.646Z,4.92
2023-05-01T08:39:16.141Z,5.01
2023-05-01T08:40:40.941Z,4.82
2023-05-01T08:42:02.761Z,4.65
2023-05-01T08:43:27.337Z,5.23
2023-05-01T08:44:51.704Z,5.27
2023-05-01T08:46:16.174Z,5.18
2023-05-01T08:47:40.926Z,4.98
2023-05-01T08:49:05.796Z,4.56
2023-05-01T08:50:27.488Z,4.44
2023-05-01T08:51:50.100Z,4.33
2023-05-01T08:53:43.072Z,4.97
2023-05-01T08:55:07.894Z,4.59
2023-05-01T08:56:29.517Z,4.97
2023-05-01T08:57:51.391Z,4.88
2023-05-01T08:59:15.788Z,4.74
2023-05-01T09:00:49.535Z,4.72
2023-05-01T09:02:14.273Z,4.52
2023-05-01T09:03:37.869Z,4.70
2023-05-01T09:05:01.879Z,4.79
2023-05-01T09:06:47.312Z,4.52
2023-05-01T09:08:18.858Z,4.53
2023-05-01T09:09:42.971Z,4.67
2023-05-01T09:11:16.502Z,5.42
2023-05-01T09:12:41.061Z,5.43
2023-05-01T09:14:17.630Z,5.42
2023-05-01T09:15:46.663Z,4.50
2023-05-01T09:17:10.465Z,4.66
2023-05-01T09:18:32.298Z,5.12
2023-05-01T09:20:01.321Z,4.83
2023-05-01T09:21:25.607Z,4.90
2023-05-01T09:23:04.157Z,5.42
2023-05-01T09:24:35.495Z,5.88
2023-05-01T09:26:04.606Z,5.54
2023-05-01T09:27:28.380Z,5.15
2023-05-01T09:28:59.889Z,4.99
2023-05-01T09:30:28.657Z,5.88
2023-05-01T09:31:58.079Z,5.56
2023-05-01T09:33:24.515Z,6.38
2023-05-01T09:34:49.080Z,6.04
2023-05-01T09:36:11.010Z,6.36
2023-05-01T09:37:32.752Z,5.72
2023-05-01T09:38:54.219Z,5.80
2023-05-01T09:40:17.869Z,6.03
2023-05-01T09:41:41.905Z,6.06
2023-05-01T09:43:15.571Z,5.86
2023-05-01T09:44:48.967Z,6.02
2023-05-01T09:46:13.257Z,6.39
2023-05-01T09:47:37.053Z,6.26
2023-05-01T09:49:06.087Z,5.84
2023-05-01T09:50:30.083Z,5.84
2023-05-01T09:51:52.497Z,5.35
2023-05-01T09:53:21.430Z,6.06
2023-05-01T09:54:55.077Z,5.37
2023-05-01T09:56:18.034Z,5.61
2023-05-01T09:57:39.673Z,5.81
2023-05-01T09:59:12.717Z,5.96
2023-05-01T10:00:34.317Z,5.78
2023-05-01T10:02:05.903Z,5.21
2023-05-01T10:03:39.779Z,5.17
2023-05-01T10:05:13.858Z,5.53
2023-05-01T10:06:47.829Z,4.93
2023-05-01T10:08:14.758Z,5.41
2023-05-01T10:09:50.553Z,5.63
2023-05-01T10:11:20.156Z,4.73
2023-05-01T10:12:44.069Z,4.70
2023-05-01T10:14:18.480Z,4.81
2023-05-01T10:15:55.936Z,4.45
2023-05-01T10:17:22.690Z,4.57
2023-05-01T10:18:58.214Z,4.52
2023-05-01T10:20:22.436Z,4.75
2023-05-01T10:21:56.053Z,4.81
2023-05-01T10:23:17.568Z,4.92
2023-05-01T10:24:52.097Z,5.01
2023-05-01T10:26:29.101Z,5.07
2023-05-01T10:27:51.199Z,4.89
2023-05-01T10:29:13.422Z,4.80
2023-05-01T10:30:37.939Z,4.85
2023-05-01T10:32:11.856Z,4.97
2023-05-01T10:33:57.034Z,5.60
2023-05-01T10:35:42.088Z,5.13
2023-05-01T10:37:17.389Z,4.64
2023-05-01T10:38:48.607Z,4.67
2023-05-01T10:40:12.458Z,4.66
2023-05-01T10:41:45.962Z,4.96
2023-05-01T10:43:27.575Z,4.50
2023-05-01T10:44:57.497Z,4.83
2023-05-01T10:46:21.757Z,4.69
2023-05-01T10:47:59.406Z,4.41
2023-05-01T10:49:41.084Z,4.12
2023-05-01T10:51:27.784Z,4.30
2023-05-01T10:53:01.971Z,4.26
2023-05-01T10:54:26.643Z,4.72
2023-05-01T10:55:50.930Z,3.97
2023-05-01T10:57:15.237Z,4.34
2023-05-01T10:58:56.477Z,4.15
2023-05-01T11:00:41.058Z,4.75
2023-05-01T11:02:14.373Z,4.80
2023-05-01T11:03:57.091Z,4.38
2023-05-01T11:05:32.175Z,4.51
2023-05-01T11:07:04.194Z,4.17
2023-05-01T11:08:47.445Z,4.16
2023-05-01T11:10:23.176Z,3.70
2023-05-01T11:11:56.557Z,4.13
2023-05-01T11:13:31.911Z,4.47
2023-05-01T11:15:05.807Z,4.07
2023-05-01T11:16:38.953Z,4.10
2023-05-01T11:18:12.182Z,4.46
2023-05-01T11:19:41.357Z,3.53
2023-05-01T11:21:35.092Z,5.84
2023-05-01T11:23:10.308Z,5.50
2023-05-01T11:24:55.678Z,5.04
2023-05-01T11:26:31.214Z,4.27
2023-05-01T11:28:06.843Z,4.49
2023-05-01T11:29:36.011Z,4.43
2023-05-01T11:31:11.599Z,4.39
2023-05-01T11:32:47.731Z,4.52
2023-05-01T11:34:14.099Z,4.52
2023-05-01T11:35:38.017Z,4.05
2023-05-01T11:37:11.607Z,4.28
2023-05-01T11:38:46.988Z,4.05
2023-05-01T11:40:20.173Z,3.75
2023-05-01T11:42:05.355Z,3.92
2023-05-01T11:43:41.312Z,3.66
2023-05-01T11:45:26.248Z,4.10
2023-05-01T11:47:01.179Z,3.72
2023-05-01T11:48:22.979Z,3.67
2023-05-01T11:49:57.627Z,3.43
2023-05-01T11:51:37.820Z,3.75
2023-05-01T11:53:23.450Z,3.98
2023-05-01T11:55:08.537Z,3.38
2023-05-01T11:56:45.556Z,3.53
2023-05-01T11:58:14.797Z,3.70
2023-05-01T11:59:48.278Z,3.84
2023-05-01T12:01:21.516Z,3.45
2023-05-01T12:02:55.681Z,3.41
2023-05-01T12:04:32.285Z,3.55
2023-05-01T12:06:18.653Z,3.67
2023-05-01T12:07:59.808Z,3.29
2023-05-01T12:09:21.433Z,3.10
2023-05-01T12:10:57.322Z,3.05
2023-05-01T12:12:19.101Z,2.57
2023-05-01T12:13:58.660Z,3.17
2023-05-01T12:15:32.239Z,3.18
2023-05-01T12:17:17.426Z,2.93
2023-05-01T12:19:02.673Z,2.80
2023-05-01T12:20:36.624Z,3.06
2023-05-01T12:22:17.131Z,2.59
2023-05-01T12:23:58.248Z,2.98
2023-05-01T12:25:33.963Z,3.34
2023-05-01T12:26:55.806Z,3.00
2023-05-01T12:28:20.356Z,3.02
2023-05-01T12:29:54.506Z,3.08
2023-05-01T12:31:16.519Z,2.80
2023-05-01T12:32:57.170Z,2.94
2023-05-01T12:34:21.188Z,3.04
2023-05-01T12:35:50.440Z,3.16
2023-05-01T12:37:14.837Z,2.58
2023-05-01T12:39:00.314Z,2.64
2023-05-01T12:40:36.284Z,2.81
2023-05-01T12:42:00.818Z,2.82
2023-05-01T12:43:25.216Z,3.01
2023-05-01T12:45:00.578Z,2.69
2023-05-01T12:46:31.978Z,3.13
2023-05-01T12:47:56.014Z,3.06
2023-05-01T12:49:20.297Z,2.72
2023-05-01T12:50:53.878Z,2.89
2023-05-01T12:52:28.145Z,2.70
2023-05-01T12:53:57.157Z,3.02
2023-05-01T12:55:30.646Z,3.04
2023-05-01T12:56:58.257Z,3.04
2023-05-01T12:58:22.456Z,3.26
2023-05-01T12:59:54.498Z,2.89
2023-05-01T13:01:18.565Z,2.55
2023-05-01T13:02:55.168Z,3.08
2023-05-01T13:04:28.962Z,2.99
2023-05-01T13:05:58.456Z,2.79
2023-05-01T13:07:22.495Z,2.69
2023-05-01T13:08:44.522Z,2.76
2023-05-01T13:10:35.161Z,2.64
2023-05-01T13:12:05.652Z,3.07
2023-05-01T13:13:35.154Z,2.42
2023-05-01T13:15:04.297Z,2.90
2023-05-01T13:16:49.834Z,5.19
2023-05-01T13:18:11.559Z,3.19
2023-05-01T13:19:40.711Z,3.05
2023-05-01T13:21:27.316Z,3.28
2023-05-01T13:23:02.648Z,2.89
2023-05-01T13:24:36.169Z,2.89
2023-05-01T13:26:30.251Z,2.56
2023-05-01T13:27:52.411Z,2.69
2023-05-01T13:29:23.551Z,2.45
2023-05-01T13:30:57.149Z,2.95
2023-05-01T13:32:21.387Z,2.87
2023-05-01T13:33:54.903Z,3.01
2023-05-01T13:35:39.722Z,2.98
2023-05-01T13:37:11.604Z,3.03
2023-05-01T13:38:37.861Z,2.54
2023-05-01T13:40:11.370Z,2.46
2023-05-01T13:41:40.664Z,2.76
2023-05-01T13:43:17.137Z,2.67
2023-05-01T13:44:58.084Z,2.90
2023-05-01T13:46:22.259Z,2.63
2023-05-01T13:48:06.024Z,2.84
2023-05-01T13:49:39.443Z,2.53
2023-05-01T13:51:20.579Z,2.62
2023-05-01T13:52:43.488Z,2.67
2023-05-01T13:54:16.903Z,2.87
2023-05-01T13:55:50.619Z,2.58
2023-05-01T13:57:15.621Z,2.57
2023-05-01T13:58:39.337Z,2.47
2023-05-01T14:00:05.792Z,2.55
2023-05-01T14:01:46.163Z,3.04
2023-05-01T14:03:10.499Z,2.98
2023-05-01T14:04:34.753Z,2.87
2023-05-01T14:06:06.419Z,3.29
2023-05-01T14:07:53.123Z,2.90
2023-05-01T14:09:17.282Z,3.31
2023-05-01T14:11:00.140Z,3.41
2023-05-01T14:12:31.500Z,3.23
2023-05-01T14:14:05.181Z,2.67
2023-05-01T14:15:55.322Z,2.87
2023-05-01T14:17:28.895Z,2.95
2023-05-01T14:19:09.538Z,2.93
2023-05-01T14:20:43.250Z,2.64
2023-05-01T14:22:28.173Z,2.14
2023-05-01T14:24:01.747Z,2.57
2023-05-01T14:25:35.299Z,2.58
2023-05-01T14:27:01.778Z,2.93
2023-05-01T14:28:31.376Z,2.77
2023-05-01T14:30:04.918Z,2.70
2023-05-01T14:31:27.559Z,3.02
2023-05-01T14:32:54.297Z,2.81
2023-05-01T14:34:16.037Z,2.41
2023-05-01T14:35:38.021Z,4.11
2023-05-01T14:36:59.831Z,3.13
2023-05-01T14:38:21.633Z,4.00
2023-05-01T14:39:43.310Z,3.62
2023-05-01T14:41:04.785Z,2.75
2023-05-01T14:42:26.766Z,2.48
2023-05-01T14:43:51.106Z,2.58
2023-05-01T14:45:13.163Z,3.12
2023-05-01T14:46:47.265Z,4.04
2023-05-01T14:48:20.739Z,2.91
2023-05-01T14:49:56.909Z,3.31
2023-05-01T14:51:32.795Z,2.35
2023-05-01T14:53:02.056Z,2.76
2023-05-01T14:54:46.877Z,2.73
2023-05-01T14:56:08.243Z,5.22
2023-05-01T14:57:37.431Z,2.49
2023-05-01T14:59:22.749Z,2.17
2023-05-01T15:00:49.405Z,2.79
2023-05-01T15:02:23.632Z,3.86
2023-05-01T15:04:09.188Z,3.78
2023-05-01T15:05:54.258Z,2.64
2023-05-01T15:07:16.613Z,2.27
2023-05-01T15:08:45.690Z,4.10
2023-05-01T15:10:16.877Z,4.04
2023-05-01T15:11:50.560Z,3.81
2023-05-01T15:13:24.212Z,3.56
2023-05-01T15:14:58.009Z,2.62
2023-05-01T15:16:38.881Z,2.30
2023-05-01T15:18:10.089Z,2.49
2023-05-01T15:19:31.800Z,2.56
2023-05-01T15:21:05.537Z,3.14
2023-05-01T15:22:27.105Z,3.16
2023-05-01T15:23:51.310Z,3.46
2023-05-01T15:25:24.960Z,3.47
2023-05-01T15:26:58.443Z,2.93
2023-05-01T15:28:24.669Z,2.59
2023-05-01T15:30:10.424Z,2.85
2023-05-01T15:32:11.275Z,2.73
2023-05-01T15:33:40.894Z,2.59
2023-05-01T15:35:10.448Z,2.74
2023-05-01T15:36:54.617Z,2.67
2023-05-01T15:38:18.349Z,2.82
2023-05-01T15:39:42.157Z,2.60
2023-05-01T15:41:17.561Z,3.34
2023-05-01T15:42:54.497Z,2.53
2023-05-01T15:44:18.888Z,2.68
2023-05-01T15:46:05.759Z,2.58
2023-05-01T15:47:41.667Z,2.41
2023-05-01T15:49:03.737Z,2.36
2023-05-01T15:50:32.532Z,2.33
2023-05-01T15:52:01.415Z,2.51
2023-05-01T15:53:25.565Z,2.70
2023-05-01T15:54:59.070Z,3.57
2023-05-01T15:56:23.167Z,3.10
2023-05-01T15:57:57.164Z,2.47
2023-05-01T15:59:32.266Z,2.87
2023-05-01T16:01:06.046Z,2.50
2023-05-01T16:02:50.971Z,2.66
2023-05-01T16:04:17.369Z,2.34
2023-05-01T16:05:53.065Z,2.38
2023-05-01T16:07:27.769Z,3.15
2023-05-01T16:08:51.864Z,2.45
2023-05-01T16:10:32.556Z,2.04
2023-05-01T16:12:06.037Z,2.49
2023-05-01T16:13:39.877Z,2.42
2023-05-01T16:15:04.067Z,2.34
2023-05-01T16:16:25.520Z,2.59
2023-05-01T16:17:55.244Z,2.36
2023-05-01T16:19:19.109Z,2.34
2023-05-01T16:20:41.114Z,2.75
2023-05-01T16:22:03.059Z,2.44
2023-05-01T16:23:37.002Z,2.60
2023-05-01T16:25:06.592Z,2.41
2023-05-01T16:26:30.925Z,2.57
2023-05-01T16:28:12.442Z,2.49
2023-05-01T16:29:46.107Z,2.67
2023-05-01T16:31:27.088Z,2.59
2023-05-01T16:32:49.488Z,2.31
2023-05-01T16:34:11.572Z,2.50
2023-05-01T16:35:36.785Z,2.30
2023-05-01T16:36:58.135Z,2.52
2023-05-01T16:38:39.949Z,2.52
2023-05-01T16:40:01.954Z,2.40
2023-05-01T16:41:36.626Z,2.32
2023-05-01T16:43:02.805Z,2.30
2023-05-01T16:44:53.182Z,2.45
2023-05-01T16:46:25.047Z,2.55
2023-05-01T16:47:58.726Z,2.48
2023-05-01T16:49:22.492Z,2.50
2023-05-01T16:50:44.543Z,2.29
2023-05-01T16:52:10.530Z,2.67
2023-05-01T16:53:32.489Z,2.54
2023-05-01T16:55:02.081Z,2.66
2023-05-01T16:56:24.049Z,2.60
2023-05-01T16:57:46.099Z,2.55
2023-05-01T16:59:07.692Z,2.89
2023-05-01T17:00:29.352Z,2.71
2023-05-01T17:01:53.537Z,5.02
2023-05-01T17:03:16.112Z,3.35
2023-05-01T17:04:37.757Z,3.19
2023-05-01T17:06:03.748Z,3.06
2023-05-01T17:07:37.117Z,3.03
2023-05-01T17:09:03.393Z,3.35
2023-05-01T17:10:38.860Z,3.28
2023-05-01T17:12:07.985Z,3.01
2023-05-01T17:13:43.923Z,3.15
2023-05-01T17:15:19.509Z,2.93
2023-05-01T17:16:53.408Z,3.34
2023-05-01T17:18:26.710Z,3.41
2023-05-01T17:20:00.697Z,3.62
2023-05-01T17:21:24.633Z,3.82
2023-05-01T17:22:48.714Z,4.03
2023-05-01T17:24:12.901Z,3.70
2023-05-01T17:25:44.675Z,3.56
2023-05-01T17:27:08.724Z,3.59
2023-05-01T17:28:30.322Z,3.42
2023-05-01T17:29:52.481Z,3.66
2023-05-01T17:31:25.871Z,3.82
2023-05-01T17:32:48.415Z,3.76
2023-05-01T17:34:21.694Z,3.45
2023-05-01T17:35:50.972Z,3.72
2023-05-01T17:37:15.363Z,3.80
2023-05-01T17:38:37.509Z,3.80
2023-05-01T17:40:03.934Z,3.77
2023-05-01T17:41:47.190Z,4.17
2023-05-01T17:43:11.034Z,4.13
2023-05-01T17:44:33.619Z,4.36
2023-05-01T17:45:57.865Z,4.35
2023-05-01T17:47:19.862Z,4.88
2023-05-01T17:48:42.156Z,5.52
2023-05-01T17:50:09.498Z,5.76
2023-05-01T17:51:54.548Z,5.84
2023-05-01T17:53:16.437Z,6.35
2023-05-01T17:54:58.351Z,6.98
2023-05-01T17:56:22.561Z,7.71
2023-05-01T17:57:49.370Z,7.82
2023-05-01T17:59:13.670Z,7.27
2023-05-01T18:00:59.113Z,7.81
2023-05-01T18:02:32.553Z,9.42
2023-05-01T18:03:56.970Z,8.26
2023-05-01T18:05:18.774Z,8.52
2023-05-01T18:06:43.382Z,8.30
2023-05-01T18:08:12.973Z,7.66
2023-05-01T18:09:35.383Z,6.78
2023-05-01T18:10:57.339Z,6.59
2023-05-01T18:12:32.964Z,7.07
2023-05-01T18:13:55.112Z,6.66
2023-05-01T18:15:28.388Z,5.71
2023-05-01T18:17:01.912Z,5.64
2023-05-01T18:18:23.690Z,5.43
2023-05-01T18:19:45.668Z,5.61
2023-05-01T18:21:07.183Z,5.98
2023-05-01T18:22:29.153Z,5.54
2023-05-01T18:23:51.537Z,5.89
2023-05-01T18:25:20.762Z,5.69
2023-05-01T18:26:42.352Z,5.95
2023-05-01T18:28:18.226Z,6.46
2023-05-01T18:29:40.304Z,6.62
2023-05-01T18:31:01.818Z,6.89
2023-05-01T18:32:32.994Z,6.99
2023-05-01T18:34:20.675Z,6.61
2023-05-01T18:35:42.516Z,6.92
2023-05-01T18:37:15.731Z,7.39
2023-05-01T18:38:37.275Z,6.77
2023-05-01T18:39:59.200Z,7.06
2023-05-01T18:41:23.666Z,7.08
2023-05-01T18:42:45.723Z,8.15
2023-05-01T18:44:07.548Z,8.54
2023-05-01T18:45:31.757Z,7.43
2023-05-01T18:47:01.234Z,8.35
2023-05-01T18:48:32.801Z,8.94
2023-05-01T18:49:58.151Z,9.85
2023-05-01T18:51:22.241Z,9.88
2023-05-01T18:52:55.647Z,9.99
2023-05-01T18:54:17.695Z,9.21
2023-05-01T18:55:42.080Z,9.46
2023-05-01T18:57:04.089Z,10.49
2023-05-01T18:58:30.096Z,11.13
2023-05-01T19:00:03.674Z,11.38
2023-05-01T19:01:27.438Z,10.98
2023-05-01T19:03:01.212Z,11.07
2023-05-01T19:04:25.006Z,10.94
2023-05-01T19:05:46.896Z,11.97
2023-05-01T19:07:10.552Z,11.46
2023-05-01T19:08:32.144Z,12.32
2023-05-01T19:09:56.867Z,27.12
2023-05-01T19:11:19.219Z,42.20
2023-05-01T19:12:47.956Z,32.75
2023-05-01T19:14:09.526Z,22.48
2023-05-01T19:15:33.295Z,14.52
2023-05-01T19:16:55.327Z,13.52
2023-05-01T19:18:17.316Z,13.76
2023-05-01T19:19:39.503Z,12.43
2023-05-01T19:21:01.519Z,12.16
2023-05-01T19:22:23.163Z,12.81